sensor_id;sensor_type;location;lat;lon;timestamp;temperature;humidity
15705;DHT22;7952;48.396;12.806;2023-09-19T00:00:45;19.40;56.70
15705;DHT22;7952;48.396;12.806;2023-09-19T00:03:12;19.40;57.30
15705;DHT22;7952;48.396;12.806;2023-09-19T00:05:39;19.40;56.80
15705;DHT22;7952;48.396;12.806;2023-09-19T00:08:05;19.40;56.80
15705;DHT22;7952;48.396;12.806;2023-09-19T00:10:33;19.40;56.80
15705;DHT22;7952;48.396;12.806;2023-09-19T00:13:04;19.30;56.80
15705;DHT22;7952;48.396;12.806;2023-09-19T00:15:41;19.30;56.80
15705;DHT22;7952;48.396;12.806;2023-09-19T00:18:08;19.30;56.80
15705;DHT22;7952;48.396;12.806;2023-09-19T00:20:38;19.30;56.80
15705;DHT22;7952;48.396;12.806;2023-09-19T00:23:04;19.30;56.80
15705;DHT22;7952;48.396;12.806;2023-09-19T00:25:30;19.30;56.90
15705;DHT22;7952;48.396;12.806;2023-09-19T00:27:57;19.30;56.90
15705;DHT22;7952;48.396;12.806;2023-09-19T00:30:23;19.30;56.90
15705;DHT22;7952;48.396;12.806;2023-09-19T00:32:50;19.30;56.90
15705;DHT22;7952;48.396;12.806;2023-09-19T00:35:20;19.30;56.90
15705;DHT22;7952;48.396;12.806;2023-09-19T00:37:47;19.30;56.90
15705;DHT22;7952;48.396;12.806;2023-09-19T00:40:13;19.30;56.90
15705;DHT22;7952;48.396;12.806;2023-09-19T00:42:41;19.30;56.90
15705;DHT22;7952;48.396;12.806;2023-09-19T00:45:09;19.30;56.90
15705;DHT22;7952;48.396;12.806;2023-09-19T00:47:38;19.30;56.90
15705;DHT22;7952;48.396;12.806;2023-09-19T00:50:05;19.30;56.90
15705;DHT22;7952;48.396;12.806;2023-09-19T00:52:34;19.30;56.90
15705;DHT22;7952;48.396;12.806;2023-09-19T00:55:02;19.30;56.90
15705;DHT22;7952;48.396;12.806;2023-09-19T00:57:29;19.30;56.90
15705;DHT22;7952;48.396;12.806;2023-09-19T00:59:55;19.30;56.90
15705;DHT22;7952;48.396;12.806;2023-09-19T01:02:22;19.30;56.80
15705;DHT22;7952;48.396;12.806;2023-09-19T01:04:48;19.30;56.80
15705;DHT22;7952;48.396;12.806;2023-09-19T01:07:14;19.30;56.90
15705;DHT22;7952;48.396;12.806;2023-09-19T01:09:41;19.20;56.80
15705;DHT22;7952;48.396;12.806;2023-09-19T01:12:08;19.20;56.80
15705;DHT22;7952;48.396;12.806;2023-09-19T01:14:49;19.20;56.80
15705;DHT22;7952;48.396;12.806;2023-09-19T01:17:27;19.20;56.80
15705;DHT22;7952;48.396;12.806;2023-09-19T01:22:38;19.20;56.90
15705;DHT22;7952;48.396;12.806;2023-09-19T01:25:42;19.20;56.90
15705;DHT22;7952;48.396;12.806;2023-09-19T01:28:30;19.20;56.90
15705;DHT22;7952;48.396;12.806;2023-09-19T01:30:57;19.20;57.00
15705;DHT22;7952;48.396;12.806;2023-09-19T01:33:25;19.20;57.00
15705;DHT22;7952;48.396;12.806;2023-09-19T01:35:52;19.20;57.00
15705;DHT22;7952;48.396;12.806;2023-09-19T01:38:19;19.20;57.00
15705;DHT22;7952;48.396;12.806;2023-09-19T01:41:00;19.20;57.10
15705;DHT22;7952;48.396;12.806;2023-09-19T01:43:41;19.10;57.00
15705;DHT22;7952;48.396;12.806;2023-09-19T01:46:17;19.20;57.10
15705;DHT22;7952;48.396;12.806;2023-09-19T01:49:06;19.20;57.10
15705;DHT22;7952;48.396;12.806;2023-09-19T01:51:55;19.10;57.00
15705;DHT22;7952;48.396;12.806;2023-09-19T01:54:30;19.10;57.00
15705;DHT22;7952;48.396;12.806;2023-09-19T01:57:05;19.10;57.10
15705;DHT22;7952;48.396;12.806;2023-09-19T01:59:38;19.10;57.10
15705;DHT22;7952;48.396;12.806;2023-09-19T02:02:06;19.10;57.10
15705;DHT22;7952;48.396;12.806;2023-09-19T02:04:34;19.10;57.10
15705;DHT22;7952;48.396;12.806;2023-09-19T02:07:03;19.10;57.10
15705;DHT22;7952;48.396;12.806;2023-09-19T02:09:31;19.10;57.10
15705;DHT22;7952;48.396;12.806;2023-09-19T02:12:01;19.10;57.10
15705;DHT22;7952;48.396;12.806;2023-09-19T02:14:30;19.10;57.10
15705;DHT22;7952;48.396;12.806;2023-09-19T02:16:56;19.10;57.70
15705;DHT22;7952;48.396;12.806;2023-09-19T02:19:22;19.20;57.20
15705;DHT22;7952;48.396;12.806;2023-09-19T02:21:48;19.20;57.10
15705;DHT22;7952;48.396;12.806;2023-09-19T02:24:14;19.20;57.10
15705;DHT22;7952;48.396;12.806;2023-09-19T02:26:41;19.20;57.10
15705;DHT22;7952;48.396;12.806;2023-09-19T02:29:06;19.20;57.10
15705;DHT22;7952;48.396;12.806;2023-09-19T02:31:32;19.20;57.00
15705;DHT22;7952;48.396;12.806;2023-09-19T02:33:58;19.20;57.00
15705;DHT22;7952;48.396;12.806;2023-09-19T02:36:25;19.20;57.00
15705;DHT22;7952;48.396;12.806;2023-09-19T02:38:51;19.20;57.00
15705;DHT22;7952;48.396;12.806;2023-09-19T02:41:17;19.20;57.00
15705;DHT22;7952;48.396;12.806;2023-09-19T02:43:43;19.20;57.00
15705;DHT22;7952;48.396;12.806;2023-09-19T02:46:08;19.20;56.90
15705;DHT22;7952;48.396;12.806;2023-09-19T02:48:34;19.30;57.00
15705;DHT22;7952;48.396;12.806;2023-09-19T02:51:01;19.30;57.00
15705;DHT22;7952;48.396;12.806;2023-09-19T02:53:28;19.20;57.00
15705;DHT22;7952;48.396;12.806;2023-09-19T02:55:56;19.30;57.10
15705;DHT22;7952;48.396;12.806;2023-09-19T02:58:22;19.30;57.00
15705;DHT22;7952;48.396;12.806;2023-09-19T03:00:49;19.30;57.00
15705;DHT22;7952;48.396;12.806;2023-09-19T03:03:17;19.20;57.00
15705;DHT22;7952;48.396;12.806;2023-09-19T03:05:43;19.20;57.00
15705;DHT22;7952;48.396;12.806;2023-09-19T03:08:13;19.30;57.10
15705;DHT22;7952;48.396;12.806;2023-09-19T03:10:42;19.30;57.10
15705;DHT22;7952;48.396;12.806;2023-09-19T03:13:08;19.30;57.10
15705;DHT22;7952;48.396;12.806;2023-09-19T03:15:35;19.20;57.00
15705;DHT22;7952;48.396;12.806;2023-09-19T03:18:04;19.20;57.00
15705;DHT22;7952;48.396;12.806;2023-09-19T03:20:31;19.30;57.10
15705;DHT22;7952;48.396;12.806;2023-09-19T03:22:57;19.20;57.00
15705;DHT22;7952;48.396;12.806;2023-09-19T03:25:23;19.30;57.10
15705;DHT22;7952;48.396;12.806;2023-09-19T03:27:50;19.30;57.10
15705;DHT22;7952;48.396;12.806;2023-09-19T03:30:15;19.30;57.10
15705;DHT22;7952;48.396;12.806;2023-09-19T03:32:48;19.30;57.10
15705;DHT22;7952;48.396;12.806;2023-09-19T03:35:16;19.30;57.10
15705;DHT22;7952;48.396;12.806;2023-09-19T03:37:42;19.30;57.10
15705;DHT22;7952;48.396;12.806;2023-09-19T03:40:12;19.30;57.10
15705;DHT22;7952;48.396;12.806;2023-09-19T03:42:39;19.30;57.10
15705;DHT22;7952;48.396;12.806;2023-09-19T03:45:07;19.30;57.10
15705;DHT22;7952;48.396;12.806;2023-09-19T03:47:38;19.30;57.10
15705;DHT22;7952;48.396;12.806;2023-09-19T03:50:05;19.30;57.10
15705;DHT22;7952;48.396;12.806;2023-09-19T03:52:32;19.30;57.10
15705;DHT22;7952;48.396;12.806;2023-09-19T03:54:58;19.30;57.10
15705;DHT22;7952;48.396;12.806;2023-09-19T03:57:24;19.30;57.10
15705;DHT22;7952;48.396;12.806;2023-09-19T03:59:49;19.30;57.10
15705;DHT22;7952;48.396;12.806;2023-09-19T04:02:19;19.30;57.10
15705;DHT22;7952;48.396;12.806;2023-09-19T04:04:51;19.30;57.10
15705;DHT22;7952;48.396;12.806;2023-09-19T04:07:18;19.30;57.20
15705;DHT22;7952;48.396;12.806;2023-09-19T04:09:48;19.30;57.20
15705;DHT22;7952;48.396;12.806;2023-09-19T04:12:14;19.30;57.20
15705;DHT22;7952;48.396;12.806;2023-09-19T04:14:42;19.30;57.20
15705;DHT22;7952;48.396;12.806;2023-09-19T04:17:08;19.30;57.20
15705;DHT22;7952;48.396;12.806;2023-09-19T04:19:35;19.20;57.20
15705;DHT22;7952;48.396;12.806;2023-09-19T04:22:01;19.30;57.20
15705;DHT22;7952;48.396;12.806;2023-09-19T04:24:30;19.30;57.30
15705;DHT22;7952;48.396;12.806;2023-09-19T04:26:57;19.20;57.20
15705;DHT22;7952;48.396;12.806;2023-09-19T04:29:24;19.20;57.30
15705;DHT22;7952;48.396;12.806;2023-09-19T04:31:52;19.20;57.30
15705;DHT22;7952;48.396;12.806;2023-09-19T04:34:17;19.20;57.30
15705;DHT22;7952;48.396;12.806;2023-09-19T04:36:43;19.30;57.30
15705;DHT22;7952;48.396;12.806;2023-09-19T04:39:09;19.20;57.30
15705;DHT22;7952;48.396;12.806;2023-09-19T04:41:36;19.20;57.30
15705;DHT22;7952;48.396;12.806;2023-09-19T04:44:06;19.20;57.30
15705;DHT22;7952;48.396;12.806;2023-09-19T04:46:33;19.30;57.30
15705;DHT22;7952;48.396;12.806;2023-09-19T04:48:59;19.20;57.30
15705;DHT22;7952;48.396;12.806;2023-09-19T04:51:26;19.20;57.20
15705;DHT22;7952;48.396;12.806;2023-09-19T04:53:54;19.20;57.30
15705;DHT22;7952;48.396;12.806;2023-09-19T04:56:20;19.20;57.30
15705;DHT22;7952;48.396;12.806;2023-09-19T04:58:46;19.10;57.30
15705;DHT22;7952;48.396;12.806;2023-09-19T05:01:12;19.10;57.30
15705;DHT22;7952;48.396;12.806;2023-09-19T05:03:40;19.10;57.30
15705;DHT22;7952;48.396;12.806;2023-09-19T05:06:06;19.10;57.30
15705;DHT22;7952;48.396;12.806;2023-09-19T05:08:31;19.10;57.40
15705;DHT22;7952;48.396;12.806;2023-09-19T05:10:57;19.10;57.40
15705;DHT22;7952;48.396;12.806;2023-09-19T05:13:23;19.10;57.40
15705;DHT22;7952;48.396;12.806;2023-09-19T05:15:50;19.10;57.40
15705;DHT22;7952;48.396;12.806;2023-09-19T05:18:15;19.10;57.40
15705;DHT22;7952;48.396;12.806;2023-09-19T05:20:41;19.10;57.40
15705;DHT22;7952;48.396;12.806;2023-09-19T05:23:07;19.10;57.50
15705;DHT22;7952;48.396;12.806;2023-09-19T05:25:35;19.10;57.50
15705;DHT22;7952;48.396;12.806;2023-09-19T05:28:09;19.10;57.50
15705;DHT22;7952;48.396;12.806;2023-09-19T05:30:37;19.10;57.50
15705;DHT22;7952;48.396;12.806;2023-09-19T05:33:08;19.10;57.50
15705;DHT22;7952;48.396;12.806;2023-09-19T05:35:34;19.10;57.40
15705;DHT22;7952;48.396;12.806;2023-09-19T05:38:00;19.10;57.50
15705;DHT22;7952;48.396;12.806;2023-09-19T05:40:26;19.10;57.50
15705;DHT22;7952;48.396;12.806;2023-09-19T05:42:52;19.20;57.60
15705;DHT22;7952;48.396;12.806;2023-09-19T05:45:18;19.20;57.60
15705;DHT22;7952;48.396;12.806;2023-09-19T05:47:50;19.20;57.60
15705;DHT22;7952;48.396;12.806;2023-09-19T05:50:16;19.30;57.60
15705;DHT22;7952;48.396;12.806;2023-09-19T05:52:43;19.50;57.60
15705;DHT22;7952;48.396;12.806;2023-09-19T05:55:10;19.60;57.60
15705;DHT22;7952;48.396;12.806;2023-09-19T05:57:36;19.70;57.60
15705;DHT22;7952;48.396;12.806;2023-09-19T06:00:06;19.80;57.50
15705;DHT22;7952;48.396;12.806;2023-09-19T06:02:38;19.90;57.40
15705;DHT22;7952;48.396;12.806;2023-09-19T06:05:06;20.00;57.30
15705;DHT22;7952;48.396;12.806;2023-09-19T06:07:36;20.10;57.30
15705;DHT22;7952;48.396;12.806;2023-09-19T06:10:04;20.20;57.30
15705;DHT22;7952;48.396;12.806;2023-09-19T06:12:40;20.30;57.30
15705;DHT22;7952;48.396;12.806;2023-09-19T06:15:09;20.30;57.20
15705;DHT22;7952;48.396;12.806;2023-09-19T06:17:56;20.40;57.20
15705;DHT22;7952;48.396;12.806;2023-09-19T06:20:24;20.40;57.10
15705;DHT22;7952;48.396;12.806;2023-09-19T06:22:51;20.50;57.10
15705;DHT22;7952;48.396;12.806;2023-09-19T06:25:17;20.50;57.10
15705;DHT22;7952;48.396;12.806;2023-09-19T06:27:48;20.60;57.20
15705;DHT22;7952;48.396;12.806;2023-09-19T06:30:17;20.70;57.60
15705;DHT22;7952;48.396;12.806;2023-09-19T06:32:49;20.90;57.60
15705;DHT22;7952;48.396;12.806;2023-09-19T06:35:16;21.10;57.50
15705;DHT22;7952;48.396;12.806;2023-09-19T06:37:42;21.20;57.30
15705;DHT22;7952;48.396;12.806;2023-09-19T06:40:12;21.30;57.20
15705;DHT22;7952;48.396;12.806;2023-09-19T06:42:43;21.40;57.10
15705;DHT22;7952;48.396;12.806;2023-09-19T06:45:14;21.40;56.90
15705;DHT22;7952;48.396;12.806;2023-09-19T06:47:47;21.50;57.00
15705;DHT22;7952;48.396;12.806;2023-09-19T06:50:19;21.50;56.90
15705;DHT22;7952;48.396;12.806;2023-09-19T06:52:48;21.60;56.90
15705;DHT22;7952;48.396;12.806;2023-09-19T06:55:16;21.60;56.90
15705;DHT22;7952;48.396;12.806;2023-09-19T06:57:43;21.60;56.90
15705;DHT22;7952;48.396;12.806;2023-09-19T07:00:10;21.60;57.00
15705;DHT22;7952;48.396;12.806;2023-09-19T07:02:44;21.70;57.10
15705;DHT22;7952;48.396;12.806;2023-09-19T07:05:10;21.80;57.10
15705;DHT22;7952;48.396;12.806;2023-09-19T07:07:36;22.10;57.30
15705;DHT22;7952;48.396;12.806;2023-09-19T07:10:03;22.50;57.60
15705;DHT22;7952;48.396;12.806;2023-09-19T07:12:31;22.90;57.30
15705;DHT22;7952;48.396;12.806;2023-09-19T07:14:58;23.30;57.30
15705;DHT22;7952;48.396;12.806;2023-09-19T07:17:24;23.60;56.90
15705;DHT22;7952;48.396;12.806;2023-09-19T07:19:50;23.80;56.60
15705;DHT22;7952;48.396;12.806;2023-09-19T07:22:16;24.00;56.40
15705;DHT22;7952;48.396;12.806;2023-09-19T07:24:42;24.00;56.20
15705;DHT22;7952;48.396;12.806;2023-09-19T07:27:08;24.10;56.20
15705;DHT22;7952;48.396;12.806;2023-09-19T07:29:34;24.20;56.40
15705;DHT22;7952;48.396;12.806;2023-09-19T07:32:00;24.30;56.40
15705;DHT22;7952;48.396;12.806;2023-09-19T07:34:25;24.40;56.20
15705;DHT22;7952;48.396;12.806;2023-09-19T07:36:51;24.40;56.00
15705;DHT22;7952;48.396;12.806;2023-09-19T07:39:17;24.50;56.10
15705;DHT22;7952;48.396;12.806;2023-09-19T07:41:43;24.40;55.90
15705;DHT22;7952;48.396;12.806;2023-09-19T07:44:08;24.40;55.90
15705;DHT22;7952;48.396;12.806;2023-09-19T07:46:38;24.30;55.80
15705;DHT22;7952;48.396;12.806;2023-09-19T07:49:04;24.20;55.80
15705;DHT22;7952;48.396;12.806;2023-09-19T07:51:30;24.20;55.90
15705;DHT22;7952;48.396;12.806;2023-09-19T07:53:57;24.10;56.00
15705;DHT22;7952;48.396;12.806;2023-09-19T07:56:22;24.00;56.00
15705;DHT22;7952;48.396;12.806;2023-09-19T07:58:48;24.00;56.10
15705;DHT22;7952;48.396;12.806;2023-09-19T08:01:14;23.90;56.10
15705;DHT22;7952;48.396;12.806;2023-09-19T08:03:41;23.90;56.10
15705;DHT22;7952;48.396;12.806;2023-09-19T08:06:09;23.90;56.30
15705;DHT22;7952;48.396;12.806;2023-09-19T08:08:35;24.20;56.90
15705;DHT22;7952;48.396;12.806;2023-09-19T08:11:05;24.70;57.20
15705;DHT22;7952;48.396;12.806;2023-09-19T08:13:46;25.30;57.10
15705;DHT22;7952;48.396;12.806;2023-09-19T08:16:15;26.10;56.90
15705;DHT22;7952;48.396;12.806;2023-09-19T08:18:47;26.70;56.40
15705;DHT22;7952;48.396;12.806;2023-09-19T08:21:13;27.40;55.80
15705;DHT22;7952;48.396;12.806;2023-09-19T08:23:41;27.90;55.40
15705;DHT22;7952;48.396;12.806;2023-09-19T08:26:07;28.30;54.90
15705;DHT22;7952;48.396;12.806;2023-09-19T08:28:34;28.50;54.10
15705;DHT22;7952;48.396;12.806;2023-09-19T08:31:04;28.50;53.40
15705;DHT22;7952;48.396;12.806;2023-09-19T08:33:35;28.30;53.20
15705;DHT22;7952;48.396;12.806;2023-09-19T08:36:01;27.90;53.20
15705;DHT22;7952;48.396;12.806;2023-09-19T08:38:31;27.70;53.50
15705;DHT22;7952;48.396;12.806;2023-09-19T08:40:59;27.40;54.00
15705;DHT22;7952;48.396;12.806;2023-09-19T08:43:27;27.40;54.30
15705;DHT22;7952;48.396;12.806;2023-09-19T08:46:02;27.40;54.30
15705;DHT22;7952;48.396;12.806;2023-09-19T08:48:29;27.60;54.40
15705;DHT22;7952;48.396;12.806;2023-09-19T08:51:07;27.80;54.10
15705;DHT22;7952;48.396;12.806;2023-09-19T08:56:12;28.10;53.50
15705;DHT22;7952;48.396;12.806;2023-09-19T08:58:46;28.10;53.20
15705;DHT22;7952;48.396;12.806;2023-09-19T09:01:15;28.00;53.00
15705;DHT22;7952;48.396;12.806;2023-09-19T09:03:48;27.90;53.00
15705;DHT22;7952;48.396;12.806;2023-09-19T09:06:14;27.80;53.10
15705;DHT22;7952;48.396;12.806;2023-09-19T09:08:43;27.70;53.10
15705;DHT22;7952;48.396;12.806;2023-09-19T09:11:08;27.50;53.00
15705;DHT22;7952;48.396;12.806;2023-09-19T09:13:36;27.30;53.10
15705;DHT22;7952;48.396;12.806;2023-09-19T09:16:05;27.10;53.20
15705;DHT22;7952;48.396;12.806;2023-09-19T09:18:31;26.90;53.50
15705;DHT22;7952;48.396;12.806;2023-09-19T09:20:57;26.70;53.60
15705;DHT22;7952;48.396;12.806;2023-09-19T09:23:23;26.60;53.80
15705;DHT22;7952;48.396;12.806;2023-09-19T09:25:54;26.50;53.90
15705;DHT22;7952;48.396;12.806;2023-09-19T09:28:23;26.50;53.80
15705;DHT22;7952;48.396;12.806;2023-09-19T09:30:49;26.50;53.80
15705;DHT22;7952;48.396;12.806;2023-09-19T09:33:16;26.40;53.70
15705;DHT22;7952;48.396;12.806;2023-09-19T09:38:26;26.30;53.80
15705;DHT22;7952;48.396;12.806;2023-09-19T09:40:58;26.20;53.90
15705;DHT22;7952;48.396;12.806;2023-09-19T09:43:37;26.10;53.90
15705;DHT22;7952;48.396;12.806;2023-09-19T09:46:07;26.10;54.10
15705;DHT22;7952;48.396;12.806;2023-09-19T09:49:03;26.10;54.00
15705;DHT22;7952;48.396;12.806;2023-09-19T09:51:48;26.10;54.10
15705;DHT22;7952;48.396;12.806;2023-09-19T09:54:23;26.20;54.10
15705;DHT22;7952;48.396;12.806;2023-09-19T09:56:59;26.40;54.10
15705;DHT22;7952;48.396;12.806;2023-09-19T09:59:45;26.40;53.90
15705;DHT22;7952;48.396;12.806;2023-09-19T10:02:17;26.60;53.80
15705;DHT22;7952;48.396;12.806;2023-09-19T10:04:55;26.70;53.70
15705;DHT22;7952;48.396;12.806;2023-09-19T10:07:33;26.80;53.40
15705;DHT22;7952;48.396;12.806;2023-09-19T10:10:06;26.90;53.40
15705;DHT22;7952;48.396;12.806;2023-09-19T10:12:46;26.90;53.30
15705;DHT22;7952;48.396;12.806;2023-09-19T10:15:15;26.90;53.10
15705;DHT22;7952;48.396;12.806;2023-09-19T10:17:43;26.90;53.00
15705;DHT22;7952;48.396;12.806;2023-09-19T10:20:15;26.90;53.10
15705;DHT22;7952;48.396;12.806;2023-09-19T10:23:06;27.00;53.20
15705;DHT22;7952;48.396;12.806;2023-09-19T10:25:42;27.10;53.10
15705;DHT22;7952;48.396;12.806;2023-09-19T10:28:09;27.20;53.00
15705;DHT22;7952;48.396;12.806;2023-09-19T10:30:44;27.30;52.90
15705;DHT22;7952;48.396;12.806;2023-09-19T10:33:15;27.40;52.80
15705;DHT22;7952;48.396;12.806;2023-09-19T10:35:46;27.40;52.60
15705;DHT22;7952;48.396;12.806;2023-09-19T10:38:19;27.40;52.60
15705;DHT22;7952;48.396;12.806;2023-09-19T10:40:51;27.40;52.50
15705;DHT22;7952;48.396;12.806;2023-09-19T10:43:19;27.50;52.60
15705;DHT22;7952;48.396;12.806;2023-09-19T10:45:47;27.60;52.50
15705;DHT22;7952;48.396;12.806;2023-09-19T10:48:16;27.70;52.30
15705;DHT22;7952;48.396;12.806;2023-09-19T10:53:26;27.80;52.10
15705;DHT22;7952;48.396;12.806;2023-09-19T10:55:57;27.80;52.00
15705;DHT22;7952;48.396;12.806;2023-09-19T10:58:29;27.80;51.90
15705;DHT22;7952;48.396;12.806;2023-09-19T11:00:59;27.80;51.80
15705;DHT22;7952;48.396;12.806;2023-09-19T11:03:32;27.60;51.70
15705;DHT22;7952;48.396;12.806;2023-09-19T11:06:03;27.50;51.70
15705;DHT22;7952;48.396;12.806;2023-09-19T11:09:00;27.30;51.80
15705;DHT22;7952;48.396;12.806;2023-09-19T11:11:43;27.10;51.80
15705;DHT22;7952;48.396;12.806;2023-09-19T11:30:45;26.70;52.40
15705;DHT22;7952;48.396;12.806;2023-09-19T11:36:04;26.50;52.40
15705;DHT22;7952;48.396;12.806;2023-09-19T11:41:38;26.10;52.40
15705;DHT22;7952;48.396;12.806;2023-09-19T11:49:26;25.30;53.10
15705;DHT22;7952;48.396;12.806;2023-09-19T11:51:56;25.00;53.40
15705;DHT22;7952;48.396;12.806;2023-09-19T11:54:22;24.90;53.70
15705;DHT22;7952;48.396;12.806;2023-09-19T11:56:53;24.80;53.80
15705;DHT22;7952;48.396;12.806;2023-09-19T11:59:23;24.70;54.00
15705;DHT22;7952;48.396;12.806;2023-09-19T12:01:54;24.60;54.00
15705;DHT22;7952;48.396;12.806;2023-09-19T12:07:01;24.50;54.00
15705;DHT22;7952;48.396;12.806;2023-09-19T12:09:27;24.40;53.90
15705;DHT22;7952;48.396;12.806;2023-09-19T12:11:53;24.40;54.00
15705;DHT22;7952;48.396;12.806;2023-09-19T12:14:23;24.30;54.10
15705;DHT22;7952;48.396;12.806;2023-09-19T12:16:53;24.20;54.10
15705;DHT22;7952;48.396;12.806;2023-09-19T12:19:21;24.10;54.10
15705;DHT22;7952;48.396;12.806;2023-09-19T12:22:01;24.00;54.20
15705;DHT22;7952;48.396;12.806;2023-09-19T12:24:32;24.00;54.30
15705;DHT22;7952;48.396;12.806;2023-09-19T12:27:07;24.00;54.30
15705;DHT22;7952;48.396;12.806;2023-09-19T12:29:53;24.10;54.40
15705;DHT22;7952;48.396;12.806;2023-09-19T12:32:35;24.10;54.30
15705;DHT22;7952;48.396;12.806;2023-09-19T12:35:10;24.20;54.40
15705;DHT22;7952;48.396;12.806;2023-09-19T12:37:37;24.20;54.30
15705;DHT22;7952;48.396;12.806;2023-09-19T12:40:11;24.30;54.90
15705;DHT22;7952;48.396;12.806;2023-09-19T12:42:43;24.40;54.30
15705;DHT22;7952;48.396;12.806;2023-09-19T12:45:11;24.50;54.20
15705;DHT22;7952;48.396;12.806;2023-09-19T12:47:39;24.60;54.20
15705;DHT22;7952;48.396;12.806;2023-09-19T12:50:15;24.60;54.00
15705;DHT22;7952;48.396;12.806;2023-09-19T12:52:52;24.70;54.00
15705;DHT22;7952;48.396;12.806;2023-09-19T12:55:29;24.80;53.90
15705;DHT22;7952;48.396;12.806;2023-09-19T13:00:38;24.90;53.80
15705;DHT22;7952;48.396;12.806;2023-09-19T13:08:21;25.30;53.70
15705;DHT22;7952;48.396;12.806;2023-09-19T13:11:10;25.40;53.70
15705;DHT22;7952;48.396;12.806;2023-09-19T13:14:17;25.50;53.60
15705;DHT22;7952;48.396;12.806;2023-09-19T13:17:00;25.60;53.50
15705;DHT22;7952;48.396;12.806;2023-09-19T13:22:44;25.60;53.40
15705;DHT22;7952;48.396;12.806;2023-09-19T13:25:18;25.70;53.40
15705;DHT22;7952;48.396;12.806;2023-09-19T13:27:49;25.80;53.40
15705;DHT22;7952;48.396;12.806;2023-09-19T13:30:20;25.80;53.30
15705;DHT22;7952;48.396;12.806;2023-09-19T13:32:46;25.80;53.30
15705;DHT22;7952;48.396;12.806;2023-09-19T13:35:13;25.90;53.30
15705;DHT22;7952;48.396;12.806;2023-09-19T13:37:40;25.90;53.20
15705;DHT22;7952;48.396;12.806;2023-09-19T13:40:09;25.90;53.20
15705;DHT22;7952;48.396;12.806;2023-09-19T13:42:36;25.90;53.20
15705;DHT22;7952;48.396;12.806;2023-09-19T13:45:06;25.90;53.20
15705;DHT22;7952;48.396;12.806;2023-09-19T13:47:34;25.90;53.10
15705;DHT22;7952;48.396;12.806;2023-09-19T13:50:03;25.90;53.10
15705;DHT22;7952;48.396;12.806;2023-09-19T13:52:31;25.90;53.10
15705;DHT22;7952;48.396;12.806;2023-09-19T13:54:57;25.90;53.10
15705;DHT22;7952;48.396;12.806;2023-09-19T13:57:24;25.80;53.10
15705;DHT22;7952;48.396;12.806;2023-09-19T13:59:51;25.80;53.10
15705;DHT22;7952;48.396;12.806;2023-09-19T14:02:17;25.80;53.10
15705;DHT22;7952;48.396;12.806;2023-09-19T14:04:48;25.80;53.10
15705;DHT22;7952;48.396;12.806;2023-09-19T14:07:15;25.70;53.10
15705;DHT22;7952;48.396;12.806;2023-09-19T14:09:41;25.70;53.10
15705;DHT22;7952;48.396;12.806;2023-09-19T14:12:07;25.60;53.20
15705;DHT22;7952;48.396;12.806;2023-09-19T14:14:33;25.60;53.20
15705;DHT22;7952;48.396;12.806;2023-09-19T14:16:58;25.50;53.20
15705;DHT22;7952;48.396;12.806;2023-09-19T14:19:27;25.50;53.40
15705;DHT22;7952;48.396;12.806;2023-09-19T14:21:53;25.50;53.40
15705;DHT22;7952;48.396;12.806;2023-09-19T14:24:21;25.50;53.40
15705;DHT22;7952;48.396;12.806;2023-09-19T14:26:47;25.40;53.40
15705;DHT22;7952;48.396;12.806;2023-09-19T14:29:13;25.40;54.00
15705;DHT22;7952;48.396;12.806;2023-09-19T14:31:40;25.40;53.40
15705;DHT22;7952;48.396;12.806;2023-09-19T14:34:06;25.40;53.40
15705;DHT22;7952;48.396;12.806;2023-09-19T14:36:32;25.30;53.40
15705;DHT22;7952;48.396;12.806;2023-09-19T14:38:59;25.30;53.40
15705;DHT22;7952;48.396;12.806;2023-09-19T14:41:24;25.20;53.40
15705;DHT22;7952;48.396;12.806;2023-09-19T14:43:54;25.10;53.40
15705;DHT22;7952;48.396;12.806;2023-09-19T14:46:23;25.10;53.50
15705;DHT22;7952;48.396;12.806;2023-09-19T14:48:52;25.00;53.50
15705;DHT22;7952;48.396;12.806;2023-09-19T14:51:18;25.00;53.60
15705;DHT22;7952;48.396;12.806;2023-09-19T14:53:45;25.00;53.60
15705;DHT22;7952;48.396;12.806;2023-09-19T14:56:11;24.90;53.60
15705;DHT22;7952;48.396;12.806;2023-09-19T14:58:38;24.90;53.60
15705;DHT22;7952;48.396;12.806;2023-09-19T15:01:06;24.80;53.60
15705;DHT22;7952;48.396;12.806;2023-09-19T15:03:33;24.80;53.70
15705;DHT22;7952;48.396;12.806;2023-09-19T15:06:03;24.70;53.70
15705;DHT22;7952;48.396;12.806;2023-09-19T15:08:37;24.70;53.70
15705;DHT22;7952;48.396;12.806;2023-09-19T15:11:09;24.70;53.80
15705;DHT22;7952;48.396;12.806;2023-09-19T15:13:36;24.60;53.70
15705;DHT22;7952;48.396;12.806;2023-09-19T15:16:04;24.60;53.80
15705;DHT22;7952;48.396;12.806;2023-09-19T15:18:30;24.50;53.80
15705;DHT22;7952;48.396;12.806;2023-09-19T15:21:00;24.50;53.80
15705;DHT22;7952;48.396;12.806;2023-09-19T15:23:26;24.50;53.80
15705;DHT22;7952;48.396;12.806;2023-09-19T15:25:52;24.40;53.80
15705;DHT22;7952;48.396;12.806;2023-09-19T15:28:19;24.40;53.90
15705;DHT22;7952;48.396;12.806;2023-09-19T15:30:56;24.40;53.90
15705;DHT22;7952;48.396;12.806;2023-09-19T15:33:22;24.40;53.90
15705;DHT22;7952;48.396;12.806;2023-09-19T15:35:48;24.30;53.80
15705;DHT22;7952;48.396;12.806;2023-09-19T15:38:14;24.20;53.80
15705;DHT22;7952;48.396;12.806;2023-09-19T15:40:47;24.20;53.80
15705;DHT22;7952;48.396;12.806;2023-09-19T15:43:13;24.20;53.90
15705;DHT22;7952;48.396;12.806;2023-09-19T15:45:39;24.10;53.90
15705;DHT22;7952;48.396;12.806;2023-09-19T15:48:05;24.10;54.00
15705;DHT22;7952;48.396;12.806;2023-09-19T15:50:31;24.00;54.00
15705;DHT22;7952;48.396;12.806;2023-09-19T15:52:57;23.90;53.90
15705;DHT22;7952;48.396;12.806;2023-09-19T15:55:23;23.90;54.60
15705;DHT22;7952;48.396;12.806;2023-09-19T15:57:49;23.90;54.00
15705;DHT22;7952;48.396;12.806;2023-09-19T16:00:15;23.80;54.00
15705;DHT22;7952;48.396;12.806;2023-09-19T16:02:44;23.80;54.00
15705;DHT22;7952;48.396;12.806;2023-09-19T16:05:10;23.80;54.10
15705;DHT22;7952;48.396;12.806;2023-09-19T16:07:37;23.70;54.00
15705;DHT22;7952;48.396;12.806;2023-09-19T16:10:04;23.70;54.10
15705;DHT22;7952;48.396;12.806;2023-09-19T16:12:30;23.70;54.10
15705;DHT22;7952;48.396;12.806;2023-09-19T16:14:56;23.60;54.10
15705;DHT22;7952;48.396;12.806;2023-09-19T16:17:22;23.60;54.10
15705;DHT22;7952;48.396;12.806;2023-09-19T16:19:47;23.60;54.10
15705;DHT22;7952;48.396;12.806;2023-09-19T16:22:13;23.60;54.10
15705;DHT22;7952;48.396;12.806;2023-09-19T16:24:40;23.50;54.10
15705;DHT22;7952;48.396;12.806;2023-09-19T16:27:06;23.50;54.10
15705;DHT22;7952;48.396;12.806;2023-09-19T16:29:32;23.40;54.10
15705;DHT22;7952;48.396;12.806;2023-09-19T16:31:57;23.40;54.20
15705;DHT22;7952;48.396;12.806;2023-09-19T16:34:23;23.40;54.20